ADDS METAR Data INFO
IDs: Format: Raw Decoded Include TAF

Data at: 2000 UTC 19 Oct 2017

KLHQ 191953Z AUTO 24011KT 10SM CLR 22/11 A3019 RMK AO2 SLP222 T02220106
KLHQ 191853Z AUTO 21010G16KT 10SM CLR 21/11 A3019 RMK AO2 SLP223 T02110106
KLHQ 191753Z AUTO 23008KT 200V270 10SM CLR 21/11 A3021 RMK AO2 SLP231 T02060106 10206 20039 58010
KLHQ 191653Z AUTO 22011KT 10SM CLR 19/11 A3023 RMK AO2 SLP237 T01940106
KLHQ 191553Z AUTO 23011KT 10SM CLR 18/09 A3023 RMK AO2 SLP238 T01780089
KLHQ 191453Z AUTO 22008KT 10SM CLR 16/09 A3025 RMK AO2 SLP243 T01610094 51009
KLHQ 191353Z AUTO 22011G14KT 10SM CLR 14/09 A3024 RMK AO2 SLP242 T01390089
KLHQ 191253Z AUTO 18004KT 10SM CLR 08/07 A3023 RMK AO2 SLP240 T00830072
KLHQ 191153Z AUTO 00000KT 10SM CLR 05/04 A3022 RMK AO2 SLP235 T00500039 10056 20028 50003
KLHQ 191053Z AUTO 00000KT 10SM CLR 04/03 A3022 RMK AO2 SLP234 T00390033
KLHQ 190953Z AUTO 17003KT 10SM CLR 04/03 A3022 RMK AO2 SLP234 T00440033
KLHQ 190853Z AUTO 00000KT 10SM CLR 03/02 A3021 RMK AO2 SLP229 T00280022 55001
KLHQ 190753Z AUTO 00000KT 10SM CLR 03/03 A3021 RMK AO2 SLP228 T00330028
KLHQ 190653Z AUTO 00000KT 10SM CLR 04/03 A3021 RMK AO2 SLP231 T00390033
KLHQ 190553Z AUTO 00000KT 10SM CLR 04/04 A3021 RMK AO2 SLP231 T00440039 10094 20044 55001
KLHQ 190453Z AUTO 00000KT 10SM CLR 06/05 A3020 RMK AO2 SLP228 T00610050 402060017
KLHQ 190353Z AUTO 00000KT 10SM CLR 06/04 A3021 RMK AO2 SLP229 T00560044
KLHQ 190253Z AUTO 00000KT 10SM CLR 06/04 A3021 RMK AO2 SLP233 T00560044 58002
KLHQ 190153Z AUTO 00000KT 10SM CLR 07/06 A3022 RMK AO2 SLP235 T00670056
KLHQ 190053Z AUTO 00000KT 10SM CLR 08/06 A3022 RMK AO2 SLP238 T00830061
KLHQ 182353Z AUTO 00000KT 10SM CLR 09/06 A3022 RMK AO2 SLP238 T00890056 10206 20089 55002
KLHQ 182253Z AUTO 19004KT 10SM CLR 16/06 A3022 RMK AO2 SLP235 T01560056
KLHQ 182153Z AUTO 21008KT 10SM CLR 19/05 A3022 RMK AO2 SLP233 T01890050
KLHQ 182053Z AUTO 23008KT 180V250 10SM CLR 20/06 A3023 RMK AO2 SLP236 T02000061 56018
KLHQ 181953Z AUTO 16007KT 140V200 10SM CLR 20/06 A3024 RMK AO2 SLP239 T02000061
KLHQ 181853Z AUTO 24005KT 10SM CLR 19/07 A3026 RMK AO2 SLP247 T01940067
KLHQ 181753Z AUTO 19006KT 10SM CLR 19/07 A3028 RMK AO2 SLP255 T01890067 10189 20017 58018
KLHQ 181653Z AUTO 15008KT 10SM CLR 18/07 A3032 RMK AO2 SLP267 T01830072
KLHQ 181553Z AUTO 10SM CLR 17/07 A3034 RMK AO2 SLP275 T01720067
KLHQ 181453Z AUTO 00000KT 10SM CLR 15/08 A3034 RMK AO2 SLP275 T01500083 50004
KLHQ 181353Z AUTO 00000KT 10SM CLR 10/07 A3034 RMK AO2 SLP279 T01000072
KLHQ 181253Z AUTO 18003KT 10SM CLR 06/06 A3034 RMK AO2 SLP278 T00610056
KLHQ 181153Z AUTO 00000KT 6SM BR CLR 02/01 A3033 RMK AO2 SLP273 I6000 T00170011 10061 20017 51006
KLHQ 181151Z AUTO 00000KT 5SM BR CLR 02/01 A3033 RMK AO2
KLHQ 181143Z AUTO 00000KT 2 1/2SM BR CLR 02/01 A3033 RMK AO2 VIS 1V5 T00220011
KLHQ 181140Z AUTO 00000KT 1 1/4SM BR CLR 02/01 A3032 RMK AO2 T00170011
KLHQ 181126Z AUTO 00000KT 3/4SM BR CLR 02/01 A3032 RMK AO2 T00170011
KLHQ 181122Z AUTO 00000KT 1 1/2SM BR CLR 02/01 A3032 RMK AO2 T00170011
KLHQ 181053Z AUTO 00000KT 9SM CLR 02/02 A3032 RMK AO2 SLP270 I1000 T00220022
KLHQ 180953Z AUTO 00000KT 10SM CLR 03/03 A3031 RMK AO2 SLP265 T00280028
KLHQ 180853Z AUTO 00000KT 10SM CLR 04/03 A3030 RMK AO2 SLP261 T00390033 58000